sensor_id;sensor_type;location;lat;lon;timestamp;temperature;humidity
32173;DHT22;18679;45.190;5.722;2023-02-01T00:02:03;7.00;54.30
32173;DHT22;18679;45.190;5.722;2023-02-01T00:05:04;7.00;54.30
32173;DHT22;18679;45.190;5.722;2023-02-01T00:08:05;6.90;54.40
32173;DHT22;18679;45.190;5.722;2023-02-01T00:11:09;6.90;54.60
32173;DHT22;18679;45.190;5.722;2023-02-01T00:14:11;6.80;54.70
32173;DHT22;18679;45.190;5.722;2023-02-01T00:17:11;6.80;54.80
32173;DHT22;18679;45.190;5.722;2023-02-01T00:20:12;6.80;54.80
32173;DHT22;18679;45.190;5.722;2023-02-01T00:23:13;6.80;54.90
32173;DHT22;18679;45.190;5.722;2023-02-01T00:26:17;6.80;55.00
32173;DHT22;18679;45.190;5.722;2023-02-01T00:29:19;6.70;55.10
32173;DHT22;18679;45.190;5.722;2023-02-01T00:32:20;6.70;55.20
32173;DHT22;18679;45.190;5.722;2023-02-01T00:35:22;6.60;55.30
32173;DHT22;18679;45.190;5.722;2023-02-01T00:38:22;6.60;55.30
32173;DHT22;18679;45.190;5.722;2023-02-01T00:41:24;6.60;55.30
32173;DHT22;18679;45.190;5.722;2023-02-01T00:44:24;6.70;55.30
32173;DHT22;18679;45.190;5.722;2023-02-01T00:47:26;6.70;55.20
32173;DHT22;18679;45.190;5.722;2023-02-01T00:50:27;6.80;55.20
32173;DHT22;18679;45.190;5.722;2023-02-01T00:53:28;6.80;55.00
32173;DHT22;18679;45.190;5.722;2023-02-01T00:56:29;6.90;55.00
32173;DHT22;18679;45.190;5.722;2023-02-01T00:59:30;7.00;54.80
32173;DHT22;18679;45.190;5.722;2023-02-01T01:02:31;7.00;54.70
32173;DHT22;18679;45.190;5.722;2023-02-01T01:05:31;7.00;54.60
32173;DHT22;18679;45.190;5.722;2023-02-01T01:08:33;7.10;54.60
32173;DHT22;18679;45.190;5.722;2023-02-01T01:11:36;7.10;54.60
32173;DHT22;18679;45.190;5.722;2023-02-01T01:14:39;7.10;54.50
32173;DHT22;18679;45.190;5.722;2023-02-01T01:17:40;7.10;54.50
32173;DHT22;18679;45.190;5.722;2023-02-01T01:20:41;7.20;54.50
32173;DHT22;18679;45.190;5.722;2023-02-01T01:23:42;7.20;54.50
32173;DHT22;18679;45.190;5.722;2023-02-01T01:26:44;7.10;54.50
32173;DHT22;18679;45.190;5.722;2023-02-01T01:29:44;7.10;54.50
32173;DHT22;18679;45.190;5.722;2023-02-01T01:32:45;7.10;54.60
32173;DHT22;18679;45.190;5.722;2023-02-01T01:35:46;7.50;54.90
32173;DHT22;18679;45.190;5.722;2023-02-01T01:38:47;7.00;54.70
32173;DHT22;18679;45.190;5.722;2023-02-01T01:41:48;7.00;54.70
32173;DHT22;18679;45.190;5.722;2023-02-01T01:45:26;7.00;55.40
32173;DHT22;18679;45.190;5.722;2023-02-01T01:48:29;7.00;54.80
32173;DHT22;18679;45.190;5.722;2023-02-01T01:51:33;6.90;54.90
32173;DHT22;18679;45.190;5.722;2023-02-01T01:54:48;6.80;54.90
32173;DHT22;18679;45.190;5.722;2023-02-01T01:57:55;6.80;54.90
32173;DHT22;18679;45.190;5.722;2023-02-01T02:00:58;6.90;55.10
32173;DHT22;18679;45.190;5.722;2023-02-01T02:03:59;6.80;55.00
32173;DHT22;18679;45.190;5.722;2023-02-01T02:07:01;6.80;55.60
32173;DHT22;18679;45.190;5.722;2023-02-01T02:10:06;6.80;55.00
32173;DHT22;18679;45.190;5.722;2023-02-01T02:13:08;6.80;55.00
32173;DHT22;18679;45.190;5.722;2023-02-01T02:41:01;6.40;55.80
32173;DHT22;18679;45.190;5.722;2023-02-01T02:47:56;6.20;56.10
32173;DHT22;18679;45.190;5.722;2023-02-01T02:54:23;6.20;56.40
32173;DHT22;18679;45.190;5.722;2023-02-01T02:57:44;6.30;56.40
32173;DHT22;18679;45.190;5.722;2023-02-01T03:01:04;6.20;56.40
32173;DHT22;18679;45.190;5.722;2023-02-01T03:04:24;6.30;56.40
32173;DHT22;18679;45.190;5.722;2023-02-01T03:11:09;6.30;56.30
32173;DHT22;18679;45.190;5.722;2023-02-01T03:14:11;6.30;56.40
32173;DHT22;18679;45.190;5.722;2023-02-01T03:17:21;6.30;56.50
32173;DHT22;18679;45.190;5.722;2023-02-01T03:20:25;6.30;56.40
32173;DHT22;18679;45.190;5.722;2023-02-01T03:23:31;6.30;56.40
32173;DHT22;18679;45.190;5.722;2023-02-01T03:26:35;6.30;56.40
32173;DHT22;18679;45.190;5.722;2023-02-01T03:30:01;6.30;56.40
32173;DHT22;18679;45.190;5.722;2023-02-01T03:33:06;6.20;56.40
32173;DHT22;18679;45.190;5.722;2023-02-01T03:36:15;6.20;56.50
32173;DHT22;18679;45.190;5.722;2023-02-01T03:39:31;6.20;56.60
32173;DHT22;18679;45.190;5.722;2023-02-01T03:42:40;6.20;56.60
32173;DHT22;18679;45.190;5.722;2023-02-01T03:45:48;6.20;56.60
32173;DHT22;18679;45.190;5.722;2023-02-01T03:48:51;6.20;56.70
32173;DHT22;18679;45.190;5.722;2023-02-01T03:51:53;6.20;56.70
32173;DHT22;18679;45.190;5.722;2023-02-01T03:54:56;6.20;56.60
32173;DHT22;18679;45.190;5.722;2023-02-01T03:58:06;6.20;56.70
32173;DHT22;18679;45.190;5.722;2023-02-01T04:01:08;6.20;56.70
32173;DHT22;18679;45.190;5.722;2023-02-01T04:04:12;6.20;56.80
32173;DHT22;18679;45.190;5.722;2023-02-01T04:07:22;6.20;56.70
32173;DHT22;18679;45.190;5.722;2023-02-01T04:10:23;6.30;56.70
32173;DHT22;18679;45.190;5.722;2023-02-01T04:13:24;6.30;56.70
32173;DHT22;18679;45.190;5.722;2023-02-01T04:16:25;6.30;56.70
32173;DHT22;18679;45.190;5.722;2023-02-01T04:19:26;6.30;56.70
32173;DHT22;18679;45.190;5.722;2023-02-01T04:22:26;6.20;56.70
32173;DHT22;18679;45.190;5.722;2023-02-01T04:25:30;6.20;56.80
32173;DHT22;18679;45.190;5.722;2023-02-01T04:28:31;6.20;56.80
32173;DHT22;18679;45.190;5.722;2023-02-01T04:31:32;6.30;56.80
32173;DHT22;18679;45.190;5.722;2023-02-01T04:34:32;6.30;56.80
32173;DHT22;18679;45.190;5.722;2023-02-01T04:37:34;6.40;56.70
32173;DHT22;18679;45.190;5.722;2023-02-01T04:40:35;6.40;56.60
32173;DHT22;18679;45.190;5.722;2023-02-01T04:43:38;6.50;56.60
32173;DHT22;18679;45.190;5.722;2023-02-01T04:46:39;6.50;56.50
32173;DHT22;18679;45.190;5.722;2023-02-01T04:49:39;6.50;56.40
32173;DHT22;18679;45.190;5.722;2023-02-01T04:52:40;6.50;56.40
32173;DHT22;18679;45.190;5.722;2023-02-01T04:55:42;6.40;56.50
32173;DHT22;18679;45.190;5.722;2023-02-01T04:58:43;6.30;56.50
32173;DHT22;18679;45.190;5.722;2023-02-01T05:01:44;6.30;56.60
32173;DHT22;18679;45.190;5.722;2023-02-01T05:04:45;6.20;56.70
32173;DHT22;18679;45.190;5.722;2023-02-01T05:07:46;6.10;56.80
32173;DHT22;18679;45.190;5.722;2023-02-01T05:10:47;6.10;57.00
32173;DHT22;18679;45.190;5.722;2023-02-01T05:13:48;6.00;57.10
32173;DHT22;18679;45.190;5.722;2023-02-01T05:16:49;6.00;57.20
32173;DHT22;18679;45.190;5.722;2023-02-01T05:19:50;5.90;57.30
32173;DHT22;18679;45.190;5.722;2023-02-01T05:22:51;5.90;57.50
32173;DHT22;18679;45.190;5.722;2023-02-01T05:25:52;5.80;57.40
32173;DHT22;18679;45.190;5.722;2023-02-01T05:28:53;5.80;57.50
32173;DHT22;18679;45.190;5.722;2023-02-01T05:31:54;5.80;57.60
32173;DHT22;18679;45.190;5.722;2023-02-01T05:34:54;5.80;57.60
32173;DHT22;18679;45.190;5.722;2023-02-01T05:37:55;5.80;57.70
32173;DHT22;18679;45.190;5.722;2023-02-01T05:40:56;5.70;57.70
32173;DHT22;18679;45.190;5.722;2023-02-01T05:43:57;5.70;57.90
32173;DHT22;18679;45.190;5.722;2023-02-01T05:46:58;5.70;57.90
32173;DHT22;18679;45.190;5.722;2023-02-01T05:49:59;5.70;57.90
32173;DHT22;18679;45.190;5.722;2023-02-01T05:53:00;5.70;58.00
32173;DHT22;18679;45.190;5.722;2023-02-01T05:56:01;5.70;58.10
32173;DHT22;18679;45.190;5.722;2023-02-01T05:59:02;5.60;58.10
32173;DHT22;18679;45.190;5.722;2023-02-01T06:02:03;5.60;58.20
32173;DHT22;18679;45.190;5.722;2023-02-01T06:05:04;5.60;58.20
32173;DHT22;18679;45.190;5.722;2023-02-01T06:08:05;5.60;58.20
32173;DHT22;18679;45.190;5.722;2023-02-01T06:11:08;5.70;58.30
32173;DHT22;18679;45.190;5.722;2023-02-01T06:14:09;5.70;58.20
32173;DHT22;18679;45.190;5.722;2023-02-01T06:17:09;5.70;58.20
32173;DHT22;18679;45.190;5.722;2023-02-01T06:20:12;5.70;58.20
32173;DHT22;18679;45.190;5.722;2023-02-01T06:23:13;5.70;58.20
32173;DHT22;18679;45.190;5.722;2023-02-01T06:26:14;5.70;58.20
32173;DHT22;18679;45.190;5.722;2023-02-01T06:29:15;5.60;58.20
32173;DHT22;18679;45.190;5.722;2023-02-01T06:32:15;5.60;58.30
32173;DHT22;18679;45.190;5.722;2023-02-01T06:35:17;5.50;58.40
32173;DHT22;18679;45.190;5.722;2023-02-01T06:38:18;5.60;58.40
32173;DHT22;18679;45.190;5.722;2023-02-01T06:41:19;5.50;58.40
32173;DHT22;18679;45.190;5.722;2023-02-01T06:44:21;5.50;58.40
32173;DHT22;18679;45.190;5.722;2023-02-01T06:47:21;5.50;58.50
32173;DHT22;18679;45.190;5.722;2023-02-01T06:50:22;5.50;58.40
32173;DHT22;18679;45.190;5.722;2023-02-01T06:53:23;5.50;58.40
32173;DHT22;18679;45.190;5.722;2023-02-01T06:56:25;5.50;58.50
32173;DHT22;18679;45.190;5.722;2023-02-01T06:59:26;5.50;58.60
32173;DHT22;18679;45.190;5.722;2023-02-01T07:02:27;5.40;58.50
32173;DHT22;18679;45.190;5.722;2023-02-01T07:05:28;5.40;58.60
32173;DHT22;18679;45.190;5.722;2023-02-01T07:08:30;5.50;58.70
32173;DHT22;18679;45.190;5.722;2023-02-01T07:11:31;5.50;58.60
32173;DHT22;18679;45.190;5.722;2023-02-01T07:14:32;5.50;58.50
32173;DHT22;18679;45.190;5.722;2023-02-01T07:17:33;5.60;58.50
32173;DHT22;18679;45.190;5.722;2023-02-01T07:20:34;5.70;58.40
32173;DHT22;18679;45.190;5.722;2023-02-01T07:23:35;5.70;58.40
32173;DHT22;18679;45.190;5.722;2023-02-01T07:26:36;5.70;58.30
32173;DHT22;18679;45.190;5.722;2023-02-01T07:29:37;5.80;58.30
32173;DHT22;18679;45.190;5.722;2023-02-01T07:32:38;5.90;58.20
32173;DHT22;18679;45.190;5.722;2023-02-01T07:35:38;5.90;58.10
32173;DHT22;18679;45.190;5.722;2023-02-01T07:38:39;6.00;58.10
32173;DHT22;18679;45.190;5.722;2023-02-01T07:41:40;6.00;58.00
32173;DHT22;18679;45.190;5.722;2023-02-01T07:44:41;6.00;57.90
32173;DHT22;18679;45.190;5.722;2023-02-01T07:47:42;5.90;57.90
32173;DHT22;18679;45.190;5.722;2023-02-01T07:50:42;5.90;58.00
32173;DHT22;18679;45.190;5.722;2023-02-01T07:53:44;5.80;58.00
32173;DHT22;18679;45.190;5.722;2023-02-01T07:56:45;5.80;58.10
32173;DHT22;18679;45.190;5.722;2023-02-01T07:59:46;5.80;58.10
32173;DHT22;18679;45.190;5.722;2023-02-01T08:03:13;5.80;58.20
32173;DHT22;18679;45.190;5.722;2023-02-01T08:06:13;5.80;58.20
32173;DHT22;18679;45.190;5.722;2023-02-01T08:09:15;5.80;58.30
32173;DHT22;18679;45.190;5.722;2023-02-01T08:12:15;6.00;58.30
32173;DHT22;18679;45.190;5.722;2023-02-01T08:15:16;6.00;58.10
32173;DHT22;18679;45.190;5.722;2023-02-01T08:18:18;6.10;57.90
32173;DHT22;18679;45.190;5.722;2023-02-01T08:21:22;6.20;57.80
32173;DHT22;18679;45.190;5.722;2023-02-01T08:24:24;6.30;57.70
32173;DHT22;18679;45.190;5.722;2023-02-01T08:27:25;6.40;57.60
32173;DHT22;18679;45.190;5.722;2023-02-01T08:30:27;6.40;57.40
32173;DHT22;18679;45.190;5.722;2023-02-01T08:33:28;6.50;57.20
32173;DHT22;18679;45.190;5.722;2023-02-01T08:36:31;6.50;57.00
32173;DHT22;18679;45.190;5.722;2023-02-01T08:39:32;6.60;57.00
32173;DHT22;18679;45.190;5.722;2023-02-01T08:42:33;6.60;56.90
32173;DHT22;18679;45.190;5.722;2023-02-01T08:45:53;6.70;56.80
32173;DHT22;18679;45.190;5.722;2023-02-01T08:48:55;6.80;56.80
32173;DHT22;18679;45.190;5.722;2023-02-01T08:51:56;7.00;56.70
32173;DHT22;18679;45.190;5.722;2023-02-01T08:54:57;7.10;56.40
32173;DHT22;18679;45.190;5.722;2023-02-01T08:57:58;7.20;56.30
32173;DHT22;18679;45.190;5.722;2023-02-01T09:01:25;7.30;56.10
32173;DHT22;18679;45.190;5.722;2023-02-01T09:04:26;7.40;55.80
32173;DHT22;18679;45.190;5.722;2023-02-01T09:07:27;7.50;55.50
32173;DHT22;18679;45.190;5.722;2023-02-01T09:10:27;7.70;55.30
32173;DHT22;18679;45.190;5.722;2023-02-01T09:13:28;7.80;55.10
32173;DHT22;18679;45.190;5.722;2023-02-01T09:16:29;7.90;54.80
32173;DHT22;18679;45.190;5.722;2023-02-01T09:19:31;8.10;54.70
32173;DHT22;18679;45.190;5.722;2023-02-01T09:22:31;8.10;54.40
32173;DHT22;18679;45.190;5.722;2023-02-01T09:25:32;8.10;54.50
32173;DHT22;18679;45.190;5.722;2023-02-01T09:28:33;8.10;53.90
32173;DHT22;18679;45.190;5.722;2023-02-01T09:31:34;8.10;54.00
32173;DHT22;18679;45.190;5.722;2023-02-01T09:34:35;8.10;54.00
32173;DHT22;18679;45.190;5.722;2023-02-01T09:37:36;8.20;53.70
32173;DHT22;18679;45.190;5.722;2023-02-01T09:40:42;8.20;53.50
32173;DHT22;18679;45.190;5.722;2023-02-01T09:43:58;8.20;53.30
32173;DHT22;18679;45.190;5.722;2023-02-01T09:47:02;8.20;53.40
32173;DHT22;18679;45.190;5.722;2023-02-01T09:50:11;8.30;53.50
32173;DHT22;18679;45.190;5.722;2023-02-01T09:56:29;8.50;53.30
32173;DHT22;18679;45.190;5.722;2023-02-01T10:00:04;8.50;53.20
32173;DHT22;18679;45.190;5.722;2023-02-01T10:03:13;8.70;53.10
32173;DHT22;18679;45.190;5.722;2023-02-01T10:16:11;9.10;52.20
32173;DHT22;18679;45.190;5.722;2023-02-01T10:19:22;9.10;51.70
32173;DHT22;18679;45.190;5.722;2023-02-01T10:23:46;9.30;51.70
32173;DHT22;18679;45.190;5.722;2023-02-01T10:26:37;9.60;51.00
32173;DHT22;18679;45.190;5.722;2023-02-01T10:29:41;9.90;50.50
32173;DHT22;18679;45.190;5.722;2023-02-01T10:32:43;10.10;50.00
32173;DHT22;18679;45.190;5.722;2023-02-01T10:35:45;10.30;49.70
32173;DHT22;18679;45.190;5.722;2023-02-01T10:38:46;10.60;49.60
32173;DHT22;18679;45.190;5.722;2023-02-01T10:41:47;10.70;49.30
32173;DHT22;18679;45.190;5.722;2023-02-01T10:44:48;10.80;49.30
32173;DHT22;18679;45.190;5.722;2023-02-01T10:47:51;10.90;49.00
32173;DHT22;18679;45.190;5.722;2023-02-01T10:51:27;11.10;49.00
32173;DHT22;18679;45.190;5.722;2023-02-01T10:54:37;11.30;48.80
32173;DHT22;18679;45.190;5.722;2023-02-01T10:57:38;11.50;48.50
32173;DHT22;18679;45.190;5.722;2023-02-01T11:00:48;11.70;48.10
32173;DHT22;18679;45.190;5.722;2023-02-01T11:04:02;11.90;47.80
32173;DHT22;18679;45.190;5.722;2023-02-01T11:07:24;12.30;48.10
32173;DHT22;18679;45.190;5.722;2023-02-01T11:10:40;12.70;46.90
32173;DHT22;18679;45.190;5.722;2023-02-01T11:13:42;13.10;46.20
32173;DHT22;18679;45.190;5.722;2023-02-01T11:16:52;13.50;45.50
32173;DHT22;18679;45.190;5.722;2023-02-01T11:19:57;13.80;44.60
32173;DHT22;18679;45.190;5.722;2023-02-01T11:22:59;14.20;43.90
32173;DHT22;18679;45.190;5.722;2023-02-01T11:26:02;14.50;43.00
32173;DHT22;18679;45.190;5.722;2023-02-01T11:29:14;15.00;42.40
32173;DHT22;18679;45.190;5.722;2023-02-01T11:32:21;15.30;40.60
32173;DHT22;18679;45.190;5.722;2023-02-01T11:35:22;15.50;40.20
32173;DHT22;18679;45.190;5.722;2023-02-01T11:38:32;15.90;40.40
32173;DHT22;18679;45.190;5.722;2023-02-01T11:41:33;16.20;39.30
32173;DHT22;18679;45.190;5.722;2023-02-01T11:44:37;16.60;38.20
32173;DHT22;18679;45.190;5.722;2023-02-01T11:47:40;17.00;37.30
32173;DHT22;18679;45.190;5.722;2023-02-01T12:10:48;19.50;33.60
32173;DHT22;18679;45.190;5.722;2023-02-01T12:24:29;18.70;33.90
32173;DHT22;18679;45.190;5.722;2023-02-01T12:31:11;17.60;35.30
32173;DHT22;18679;45.190;5.722;2023-02-01T12:40:55;16.10;37.30
32173;DHT22;18679;45.190;5.722;2023-02-01T12:44:32;15.80;37.60
32173;DHT22;18679;45.190;5.722;2023-02-01T12:47:49;15.50;37.90
32173;DHT22;18679;45.190;5.722;2023-02-01T12:51:06;15.20;37.90
32173;DHT22;18679;45.190;5.722;2023-02-01T12:54:34;15.10;38.20
32173;DHT22;18679;45.190;5.722;2023-02-01T12:57:40;14.90;38.30
32173;DHT22;18679;45.190;5.722;2023-02-01T13:00:47;14.80;38.40
32173;DHT22;18679;45.190;5.722;2023-02-01T13:07:24;14.80;38.80
32173;DHT22;18679;45.190;5.722;2023-02-01T13:13:56;14.80;38.80
32173;DHT22;18679;45.190;5.722;2023-02-01T13:17:14;14.70;38.70
32173;DHT22;18679;45.190;5.722;2023-02-01T13:20:35;14.60;39.10
32173;DHT22;18679;45.190;5.722;2023-02-01T13:23:41;14.50;39.20
32173;DHT22;18679;45.190;5.722;2023-02-01T13:26:46;14.50;39.30
32173;DHT22;18679;45.190;5.722;2023-02-01T13:29:56;14.50;39.40
32173;DHT22;18679;45.190;5.722;2023-02-01T13:43:17;14.30;39.90
32173;DHT22;18679;45.190;5.722;2023-02-01T13:46:20;14.30;40.20
32173;DHT22;18679;45.190;5.722;2023-02-01T13:49:25;14.20;40.20
32173;DHT22;18679;45.190;5.722;2023-02-01T13:52:37;14.20;40.30
32173;DHT22;18679;45.190;5.722;2023-02-01T13:55:43;14.20;40.30
32173;DHT22;18679;45.190;5.722;2023-02-01T13:58:47;14.20;40.30
32173;DHT22;18679;45.190;5.722;2023-02-01T14:01:48;14.20;40.20
32173;DHT22;18679;45.190;5.722;2023-02-01T14:04:50;14.20;40.30
32173;DHT22;18679;45.190;5.722;2023-02-01T14:11:33;14.20;40.50
32173;DHT22;18679;45.190;5.722;2023-02-01T14:17:37;14.30;40.30
32173;DHT22;18679;45.190;5.722;2023-02-01T14:20:43;14.40;40.40
32173;DHT22;18679;45.190;5.722;2023-02-01T14:26:58;14.30;40.80
32173;DHT22;18679;45.190;5.722;2023-02-01T14:30:02;14.20;41.10
32173;DHT22;18679;45.190;5.722;2023-02-01T14:33:18;14.20;41.40
32173;DHT22;18679;45.190;5.722;2023-02-01T14:36:20;14.10;41.70
32173;DHT22;18679;45.190;5.722;2023-02-01T14:39:29;14.00;41.90
32173;DHT22;18679;45.190;5.722;2023-02-01T14:42:46;14.00;42.40
32173;DHT22;18679;45.190;5.722;2023-02-01T14:45:49;13.90;42.70
32173;DHT22;18679;45.190;5.722;2023-02-01T14:48:57;13.80;43.10
32173;DHT22;18679;45.190;5.722;2023-02-01T14:51:59;13.80;43.40
32173;DHT22;18679;45.190;5.722;2023-02-01T14:55:04;13.70;43.70
32173;DHT22;18679;45.190;5.722;2023-02-01T15:01:33;13.50;44.50
32173;DHT22;18679;45.190;5.722;2023-02-01T15:04:41;13.40;44.90
32173;DHT22;18679;45.190;5.722;2023-02-01T15:07:43;13.30;45.30
32173;DHT22;18679;45.190;5.722;2023-02-01T15:10:46;13.20;45.60
32173;DHT22;18679;45.190;5.722;2023-02-01T15:13:52;13.10;46.00
32173;DHT22;18679;45.190;5.722;2023-02-01T15:16:55;13.00;46.50
32173;DHT22;18679;45.190;5.722;2023-02-01T15:19:57;12.90;46.70
32173;DHT22;18679;45.190;5.722;2023-02-01T15:23:06;12.90;47.00
32173;DHT22;18679;45.190;5.722;2023-02-01T15:26:27;12.80;47.40
32173;DHT22;18679;45.190;5.722;2023-02-01T15:29:28;12.70;47.70
32173;DHT22;18679;45.190;5.722;2023-02-01T15:32:35;12.70;47.90
32173;DHT22;18679;45.190;5.722;2023-02-01T15:35:47;12.60;48.20
32173;DHT22;18679;45.190;5.722;2023-02-01T15:38:48;12.60;48.50
32173;DHT22;18679;45.190;5.722;2023-02-01T15:41:51;12.50;48.60
32173;DHT22;18679;45.190;5.722;2023-02-01T15:44:53;12.50;48.70
32173;DHT22;18679;45.190;5.722;2023-02-01T15:47:56;12.40;48.80
32173;DHT22;18679;45.190;5.722;2023-02-01T15:50:57;12.30;48.90
32173;DHT22;18679;45.190;5.722;2023-02-01T15:54:01;12.30;49.00
32173;DHT22;18679;45.190;5.722;2023-02-01T15:57:03;12.30;49.20
32173;DHT22;18679;45.190;5.722;2023-02-01T16:00:28;12.20;49.30
32173;DHT22;18679;45.190;5.722;2023-02-01T16:09:55;12.20;49.40
32173;DHT22;18679;45.190;5.722;2023-02-01T16:12:57;12.20;49.50
32173;DHT22;18679;45.190;5.722;2023-02-01T16:16:01;12.10;49.60
32173;DHT22;18679;45.190;5.722;2023-02-01T16:19:02;12.10;49.70
32173;DHT22;18679;45.190;5.722;2023-02-01T16:22:03;12.10;49.70
32173;DHT22;18679;45.190;5.722;2023-02-01T16:25:04;12.10;49.70
32173;DHT22;18679;45.190;5.722;2023-02-01T16:28:05;12.10;49.70
32173;DHT22;18679;45.190;5.722;2023-02-01T16:31:14;12.00;49.70
32173;DHT22;18679;45.190;5.722;2023-02-01T16:34:19;12.00;49.70
32173;DHT22;18679;45.190;5.722;2023-02-01T16:37:22;12.00;49.90
32173;DHT22;18679;45.190;5.722;2023-02-01T16:40:23;12.00;49.80
32173;DHT22;18679;45.190;5.722;2023-02-01T16:43:25;12.00;49.80
32173;DHT22;18679;45.190;5.722;2023-02-01T16:46:35;12.00;49.80
32173;DHT22;18679;45.190;5.722;2023-02-01T16:49:41;12.00;49.70
32173;DHT22;18679;45.190;5.722;2023-02-01T16:52:43;12.00;49.70
32173;DHT22;18679;45.190;5.722;2023-02-01T16:55:44;12.00;49.60
32173;DHT22;18679;45.190;5.722;2023-02-01T16:58:47;12.00;49.50
32173;DHT22;18679;45.190;5.722;2023-02-01T17:01:48;12.00;49.50
32173;DHT22;18679;45.190;5.722;2023-02-01T17:04:49;12.00;49.30
32173;DHT22;18679;45.190;5.722;2023-02-01T17:07:50;12.00;49.20
32173;DHT22;18679;45.190;5.722;2023-02-01T17:10:51;12.00;49.20
32173;DHT22;18679;45.190;5.722;2023-02-01T17:13:53;11.90;48.90
32173;DHT22;18679;45.190;5.722;2023-02-01T17:16:54;12.00;48.90
32173;DHT22;18679;45.190;5.722;2023-02-01T17:19:54;12.00;48.70
32173;DHT22;18679;45.190;5.722;2023-02-01T17:22:56;12.00;48.70
32173;DHT22;18679;45.190;5.722;2023-02-01T17:25:57;12.00;48.50
32173;DHT22;18679;45.190;5.722;2023-02-01T17:28:58;12.00;48.40
32173;DHT22;18679;45.190;5.722;2023-02-01T17:31:59;12.00;48.20
32173;DHT22;18679;45.190;5.722;2023-02-01T17:35:01;12.10;48.10
32173;DHT22;18679;45.190;5.722;2023-02-01T17:38:02;12.10;48.10
32173;DHT22;18679;45.190;5.722;2023-02-01T17:41:03;12.10;48.00
32173;DHT22;18679;45.190;5.722;2023-02-01T17:44:04;12.10;47.90
32173;DHT22;18679;45.190;5.722;2023-02-01T17:47:05;12.10;47.80
32173;DHT22;18679;45.190;5.722;2023-02-01T17:50:06;12.20;47.80
32173;DHT22;18679;45.190;5.722;2023-02-01T17:53:09;12.10;47.50
32173;DHT22;18679;45.190;5.722;2023-02-01T17:56:17;12.10;47.40
32173;DHT22;18679;45.190;5.722;2023-02-01T17:59:18;12.10;47.40
32173;DHT22;18679;45.190;5.722;2023-02-01T18:02:21;12.10;47.30
32173;DHT22;18679;45.190;5.722;2023-02-01T18:05:27;12.00;47.30
32173;DHT22;18679;45.190;5.722;2023-02-01T18:08:30;11.90;47.30
32173;DHT22;18679;45.190;5.722;2023-02-01T18:11:34;11.90;47.30
32173;DHT22;18679;45.190;5.722;2023-02-01T18:14:35;11.90;47.30
32173;DHT22;18679;45.190;5.722;2023-02-01T18:17:37;11.90;47.50
32173;DHT22;18679;45.190;5.722;2023-02-01T18:20:40;11.90;47.50
32173;DHT22;18679;45.190;5.722;2023-02-01T18:23:43;11.90;47.60
32173;DHT22;18679;45.190;5.722;2023-02-01T18:26:44;11.90;47.60
32173;DHT22;18679;45.190;5.722;2023-02-01T18:29:45;11.80;47.70
32173;DHT22;18679;45.190;5.722;2023-02-01T18:32:46;11.80;47.80
32173;DHT22;18679;45.190;5.722;2023-02-01T18:35:48;11.80;47.90
32173;DHT22;18679;45.190;5.722;2023-02-01T18:38:49;11.80;48.10
32173;DHT22;18679;45.190;5.722;2023-02-01T18:41:50;11.70;48.10
32173;DHT22;18679;45.190;5.722;2023-02-01T18:44:51;11.70;48.30
32173;DHT22;18679;45.190;5.722;2023-02-01T18:47:52;11.60;48.30
32173;DHT22;18679;45.190;5.722;2023-02-01T18:50:53;11.60;48.40
32173;DHT22;18679;45.190;5.722;2023-02-01T18:53:57;11.60;48.50
32173;DHT22;18679;45.190;5.722;2023-02-01T18:56:58;11.60;48.50
32173;DHT22;18679;45.190;5.722;2023-02-01T18:59:59;11.50;48.50
32173;DHT22;18679;45.190;5.722;2023-02-01T19:03:00;11.50;48.50
32173;DHT22;18679;45.190;5.722;2023-02-01T19:06:01;11.50;48.60
32173;DHT22;18679;45.190;5.722;2023-02-01T19:09:02;11.40;48.60
32173;DHT22;18679;45.190;5.722;2023-02-01T19:12:03;11.40;48.90
32173;DHT22;18679;45.190;5.722;2023-02-01T19:15:07;11.40;48.60
32173;DHT22;18679;45.190;5.722;2023-02-01T19:18:08;11.30;48.60
32173;DHT22;18679;45.190;5.722;2023-02-01T19:21:11;11.30;48.60
32173;DHT22;18679;45.190;5.722;2023-02-01T19:24:12;11.30;49.20
32173;DHT22;18679;45.190;5.722;2023-02-01T19:27:13;11.30;48.60
32173;DHT22;18679;45.190;5.722;2023-02-01T19:30:15;11.30;48.60
32173;DHT22;18679;45.190;5.722;2023-02-01T19:33:16;11.20;48.50
32173;DHT22;18679;45.190;5.722;2023-02-01T19:36:17;11.20;48.60
32173;DHT22;18679;45.190;5.722;2023-02-01T19:39:18;11.20;48.60
32173;DHT22;18679;45.190;5.722;2023-02-01T19:42:20;11.20;48.60
32173;DHT22;18679;45.190;5.722;2023-02-01T19:45:21;11.20;48.70
32173;DHT22;18679;45.190;5.722;2023-02-01T19:48:22;11.10;48.70
32173;DHT22;18679;45.190;5.722;2023-02-01T19:51:22;11.10;48.80
32173;DHT22;18679;45.190;5.722;2023-02-01T19:54:23;11.10;48.80
32173;DHT22;18679;45.190;5.722;2023-02-01T19:57:25;11.10;48.80
32173;DHT22;18679;45.190;5.722;2023-02-01T20:00:25;11.10;48.80
32173;DHT22;18679;45.190;5.722;2023-02-01T20:03:26;11.10;49.40
32173;DHT22;18679;45.190;5.722;2023-02-01T20:06:29;11.10;48.80
32173;DHT22;18679;45.190;5.722;2023-02-01T20:09:31;11.10;48.90
32173;DHT22;18679;45.190;5.722;2023-02-01T20:12:32;11.10;49.00
32173;DHT22;18679;45.190;5.722;2023-02-01T20:15:33;11.00;49.00
32173;DHT22;18679;45.190;5.722;2023-02-01T20:18:34;11.00;49.10
32173;DHT22;18679;45.190;5.722;2023-02-01T20:21:38;11.00;49.20
32173;DHT22;18679;45.190;5.722;2023-02-01T20:24:39;10.90;49.10
32173;DHT22;18679;45.190;5.722;2023-02-01T20:27:40;10.90;49.00
32173;DHT22;18679;45.190;5.722;2023-02-01T20:30:45;10.90;49.10
32173;DHT22;18679;45.190;5.722;2023-02-01T20:33:46;10.90;49.00
32173;DHT22;18679;45.190;5.722;2023-02-01T20:36:47;10.90;48.90
32173;DHT22;18679;45.190;5.722;2023-02-01T20:39:48;11.00;48.80
32173;DHT22;18679;45.190;5.722;2023-02-01T20:42:49;11.00;48.70
32173;DHT22;18679;45.190;5.722;2023-02-01T20:45:50;11.00;48.70
32173;DHT22;18679;45.190;5.722;2023-02-01T20:48:51;11.00;48.90
32173;DHT22;18679;45.190;5.722;2023-02-01T20:51:52;11.00;49.20
32173;DHT22;18679;45.190;5.722;2023-02-01T20:54:52;11.00;49.50
32173;DHT22;18679;45.190;5.722;2023-02-01T20:57:53;11.00;49.80
32173;DHT22;18679;45.190;5.722;2023-02-01T21:00:55;10.90;50.00
32173;DHT22;18679;45.190;5.722;2023-02-01T21:03:56;10.90;50.20
32173;DHT22;18679;45.190;5.722;2023-02-01T21:06:58;10.90;50.60
32173;DHT22;18679;45.190;5.722;2023-02-01T21:10:00;10.80;50.80
32173;DHT22;18679;45.190;5.722;2023-02-01T21:13:01;10.80;51.00
32173;DHT22;18679;45.190;5.722;2023-02-01T21:16:06;10.70;51.20
32173;DHT22;18679;45.190;5.722;2023-02-01T21:19:08;10.70;51.30
32173;DHT22;18679;45.190;5.722;2023-02-01T21:22:13;10.70;51.40
32173;DHT22;18679;45.190;5.722;2023-02-01T21:25:14;10.70;51.40
32173;DHT22;18679;45.190;5.722;2023-02-01T21:28:15;10.70;51.20
32173;DHT22;18679;45.190;5.722;2023-02-01T21:31:17;10.60;51.30
32173;DHT22;18679;45.190;5.722;2023-02-01T21:34:20;10.60;51.10
32173;DHT22;18679;45.190;5.722;2023-02-01T21:37:21;10.60;51.20